createdAt,value
2018-06-22T00:00:32.183Z,0.00
2018-06-22T00:01:32.119Z,0.00
2018-06-22T00:02:32.035Z,0.00
2018-06-22T00:03:31.968Z,0.00
2018-06-22T00:04:31.887Z,0.00
2018-06-22T00:05:31.814Z,0.00
2018-06-22T00:06:31.737Z,0.00
2018-06-22T00:07:31.659Z,0.00
2018-06-22T00:08:31.592Z,0.00
2018-06-22T00:09:31.508Z,0.00
2018-06-22T00:10:31.448Z,0.00
2018-06-22T00:11:31.366Z,0.00
2018-06-22T00:12:31.295Z,0.00
2018-06-22T00:13:31.211Z,0.00
2018-06-22T00:14:31.144Z,0.00
2018-06-22T00:15:31.062Z,0.00
2018-06-22T00:16:30.993Z,0.00
2018-06-22T00:17:30.913Z,0.00
2018-06-22T00:18:30.851Z,0.00
2018-06-22T00:19:30.762Z,0.00
2018-06-22T00:20:30.702Z,0.00
2018-06-22T00:21:30.620Z,0.00
2018-06-22T00:22:30.546Z,0.00
2018-06-22T00:23:30.464Z,0.00
2018-06-22T00:24:30.393Z,0.00
2018-06-22T00:25:30.311Z,0.00
2018-06-22T00:26:30.244Z,0.00
2018-06-22T00:27:30.163Z,0.00
2018-06-22T00:28:30.095Z,0.00
2018-06-22T00:29:30.016Z,0.00
2018-06-22T00:30:29.950Z,0.00
2018-06-22T00:31:29.860Z,0.00
2018-06-22T00:32:29.797Z,0.00
2018-06-22T00:33:29.712Z,0.00
2018-06-22T00:34:29.640Z,0.00
2018-06-22T00:35:29.560Z,0.00
2018-06-22T00:36:29.492Z,0.00
2018-06-22T00:37:29.410Z,0.00
2018-06-22T00:38:29.340Z,0.00
2018-06-22T00:39:29.257Z,0.00
2018-06-22T00:40:29.192Z,0.00
2018-06-22T00:41:29.109Z,0.00
2018-06-22T00:53:27.572Z,0.00
2018-06-22T00:54:27.490Z,0.00
2018-06-22T00:55:27.403Z,0.00
2018-06-22T00:56:27.331Z,0.00
2018-06-22T00:57:27.252Z,0.00
2018-06-22T00:58:27.185Z,0.00
2018-06-22T00:59:27.099Z,0.00
2018-06-22T01:00:27.031Z,0.00
2018-06-22T01:01:26.947Z,0.00
2018-06-22T01:02:26.882Z,0.00
2018-06-22T01:03:26.798Z,0.00
2018-06-22T01:04:26.730Z,0.00
2018-06-22T01:05:26.644Z,0.00
2018-06-22T01:06:26.575Z,0.00
2018-06-22T01:07:26.497Z,0.00
2018-06-22T01:08:26.431Z,0.00
2018-06-22T01:09:26.344Z,0.00
2018-06-22T01:10:26.277Z,0.00
2018-06-22T01:11:26.200Z,0.00
2018-06-22T01:12:26.130Z,0.00
2018-06-22T01:13:26.045Z,0.00
2018-06-22T01:14:25.967Z,0.00
2018-06-22T01:15:25.890Z,0.00
2018-06-22T01:16:25.819Z,0.00
2018-06-22T01:17:25.739Z,0.00
2018-06-22T01:18:25.676Z,0.00
2018-06-22T01:19:25.586Z,0.00
2018-06-22T01:20:25.524Z,0.00
2018-06-22T01:21:25.439Z,0.00
2018-06-22T01:22:25.371Z,0.00
2018-06-22T01:23:25.277Z,0.00
2018-06-22T01:24:25.216Z,0.00
2018-06-22T01:25:25.132Z,0.00
2018-06-22T01:26:25.064Z,0.00
2018-06-22T01:27:24.979Z,0.00
2018-06-22T01:28:24.909Z,0.00
2018-06-22T01:29:24.828Z,0.00
2018-06-22T01:30:24.758Z,0.00
2018-06-22T01:31:24.677Z,0.00
2018-06-22T01:32:24.608Z,0.00
2018-06-22T01:33:24.524Z,0.00
2018-06-22T01:34:24.456Z,0.00
2018-06-22T01:35:24.374Z,0.00
2018-06-22T01:36:24.304Z,0.00
2018-06-22T01:37:24.220Z,0.00
2018-06-22T01:38:24.152Z,0.00
2018-06-22T01:39:24.064Z,0.00
2018-06-22T01:40:23.999Z,0.00
2018-06-22T01:41:23.915Z,0.00
2018-06-22T01:42:23.849Z,0.00
2018-06-22T01:43:23.764Z,0.00
2018-06-22T01:44:23.697Z,0.00
2018-06-22T01:45:23.617Z,0.00
2018-06-22T01:46:23.541Z,0.00
2018-06-22T01:47:23.466Z,0.00
2018-06-22T01:48:23.396Z,0.00
2018-06-22T01:49:23.307Z,0.00
2018-06-22T01:50:23.239Z,0.00
2018-06-22T01:51:23.155Z,0.00
2018-06-22T01:52:23.088Z,0.00
2018-06-22T01:53:23.002Z,0.00
2018-06-22T01:54:22.935Z,0.00
2018-06-22T01:55:22.852Z,0.00
2018-06-22T01:56:22.790Z,0.00
2018-06-22T01:57:22.706Z,0.00
2018-06-22T01:58:22.632Z,0.00
2018-06-22T01:59:22.548Z,0.00
2018-06-22T02:00:22.481Z,0.00
2018-06-22T02:01:22.399Z,0.00
2018-06-22T02:02:22.332Z,0.00
2018-06-22T02:03:22.244Z,0.00
2018-06-22T02:04:22.172Z,0.00
2018-06-22T02:05:22.090Z,0.00
2018-06-22T02:06:22.026Z,0.00
2018-06-22T02:07:21.942Z,0.00
2018-06-22T02:08:21.869Z,0.00
2018-06-22T02:09:21.787Z,0.00
2018-06-22T02:10:21.714Z,0.00
2018-06-22T02:11:21.633Z,0.00
2018-06-22T02:12:21.567Z,0.00
2018-06-22T02:13:21.480Z,0.00
2018-06-22T02:14:21.422Z,0.00
2018-06-22T02:15:21.329Z,0.00
2018-06-22T02:16:21.262Z,0.00
2018-06-22T02:17:21.175Z,0.00
2018-06-22T02:18:21.108Z,0.00
2018-06-22T02:19:21.024Z,0.00
2018-06-22T02:20:20.953Z,0.00
2018-06-22T02:21:20.869Z,0.00
2018-06-22T02:22:20.804Z,0.00
2018-06-22T02:23:20.718Z,0.00
2018-06-22T02:24:20.649Z,0.00
2018-06-22T02:25:20.575Z,0.00
2018-06-22T02:26:20.497Z,0.00
2018-06-22T02:27:20.414Z,0.00
2018-06-22T02:28:20.344Z,0.00
2018-06-22T02:29:20.260Z,0.00
2018-06-22T02:30:20.192Z,0.00
2018-06-22T02:31:20.107Z,0.00
2018-06-22T02:32:20.039Z,0.00
2018-06-22T02:33:19.966Z,0.00
2018-06-22T02:34:19.885Z,0.00
2018-06-22T02:35:19.801Z,0.00
2018-06-22T02:36:19.732Z,0.00
2018-06-22T02:37:19.648Z,0.00
2018-06-22T02:38:19.582Z,0.00
2018-06-22T02:39:19.499Z,0.00
2018-06-22T02:40:19.430Z,0.00
2018-06-22T02:41:19.350Z,0.00
2018-06-22T02:42:19.276Z,0.00
2018-06-22T02:43:19.191Z,0.00
2018-06-22T02:44:19.129Z,0.00
2018-06-22T02:45:19.040Z,0.00
2018-06-22T02:46:18.972Z,0.00
2018-06-22T02:47:18.886Z,0.00
2018-06-22T02:48:18.816Z,0.00
2018-06-22T02:49:18.732Z,0.00
2018-06-22T02:50:18.667Z,0.00
2018-06-22T02:51:18.582Z,0.00
2018-06-22T02:52:18.511Z,0.00
2018-06-22T02:53:18.427Z,0.00
2018-06-22T02:54:18.355Z,0.00
2018-06-22T02:55:18.274Z,0.00
2018-06-22T02:56:18.208Z,0.00
2018-06-22T02:57:18.128Z,0.00
2018-06-22T02:58:18.052Z,0.00
2018-06-22T02:59:17.968Z,0.00
2018-06-22T03:00:17.898Z,0.00
2018-06-22T03:01:17.816Z,0.00
2018-06-22T03:02:17.742Z,0.00
2018-06-22T03:03:17.661Z,0.00
2018-06-22T03:04:17.591Z,0.00
2018-06-22T03:05:17.509Z,0.00
2018-06-22T03:06:17.440Z,0.00
2018-06-22T03:07:17.354Z,0.00
2018-06-22T03:08:17.288Z,0.00
2018-06-22T03:09:17.204Z,0.00
2018-06-22T03:10:17.135Z,0.00
2018-06-22T03:11:17.052Z,0.00
2018-06-22T03:12:16.984Z,0.00
2018-06-22T03:13:16.898Z,0.00
2018-06-22T03:14:16.828Z,0.00
2018-06-22T03:15:16.742Z,0.00
2018-06-22T03:16:16.674Z,0.00
2018-06-22T03:17:16.591Z,0.00
2018-06-22T03:18:16.522Z,0.00
2018-06-22T03:19:16.438Z,0.00
2018-06-22T03:20:16.419Z,0.00
2018-06-22T03:21:16.285Z,0.00
2018-06-22T03:22:16.214Z,0.00
2018-06-22T03:23:16.137Z,0.00
2018-06-22T03:24:16.140Z,0.00
2018-06-22T03:25:15.979Z,0.00
2018-06-22T03:26:15.948Z,0.00
2018-06-22T03:27:15.827Z,0.00
2018-06-22T03:28:15.859Z,0.00
2018-06-22T03:29:15.678Z,0.00
2018-06-22T03:30:15.608Z,0.00
2018-06-22T03:31:15.523Z,0.00
2018-06-22T03:32:15.474Z,0.00
2018-06-22T03:33:15.366Z,0.00
2018-06-22T03:34:15.299Z,0.00
2018-06-22T03:35:15.218Z,0.00
2018-06-22T03:36:15.194Z,0.00
2018-06-22T03:37:15.060Z,0.00
2018-06-22T03:38:15.004Z,0.00
2018-06-22T03:39:14.909Z,0.00
2018-06-22T03:40:14.914Z,0.00
2018-06-22T03:41:14.750Z,0.00
2018-06-22T03:42:14.726Z,0.00
2018-06-22T03:43:14.601Z,0.00
2018-06-22T03:44:14.641Z,0.00
2018-06-22T03:45:14.447Z,0.00
2018-06-22T03:46:14.440Z,0.00
2018-06-22T03:47:14.290Z,0.00
2018-06-22T03:48:14.250Z,0.00
2018-06-22T03:49:14.149Z,0.00
2018-06-22T03:50:14.162Z,0.00
2018-06-22T03:51:14.003Z,0.00
2018-06-22T03:52:13.917Z,0.00
2018-06-22T03:53:13.831Z,0.00
2018-06-22T03:54:13.765Z,0.00
2018-06-22T03:55:13.680Z,0.00
2018-06-22T03:56:13.693Z,5.63
2018-06-22T03:57:13.530Z,5.63
2018-06-22T03:58:13.495Z,5.63
2018-06-22T03:59:13.376Z,5.63
2018-06-22T04:00:13.405Z,5.63
2018-06-22T04:01:13.223Z,5.63
2018-06-22T04:02:13.215Z,5.63
2018-06-22T04:03:13.066Z,5.63
2018-06-22T04:04:13.022Z,5.63
2018-06-22T04:05:12.917Z,5.63
2018-06-22T04:06:12.939Z,5.63
2018-06-22T04:07:12.758Z,5.63
2018-06-22T04:08:12.774Z,5.63
2018-06-22T04:09:12.605Z,5.63
2018-06-22T04:10:12.550Z,5.63
2018-06-22T04:11:12.454Z,5.63
2018-06-22T04:12:12.463Z,5.63
2018-06-22T04:13:12.303Z,5.63
2018-06-22T04:14:12.268Z,5.63
2018-06-22T04:15:12.148Z,5.63
2018-06-22T04:16:12.180Z,5.63
2018-06-22T04:17:12.000Z,5.63
2018-06-22T04:18:11.920Z,5.63
2018-06-22T04:19:11.840Z,5.63
2018-06-22T04:20:11.797Z,5.63
2018-06-22T04:21:11.690Z,5.63
2018-06-22T04:22:11.617Z,5.63
2018-06-22T04:23:11.530Z,5.63
2018-06-22T04:24:11.513Z,5.63
2018-06-22T04:25:11.381Z,5.63
2018-06-22T04:26:11.312Z,5.63
2018-06-22T04:27:11.224Z,5.63
2018-06-22T04:28:11.156Z,5.63
2018-06-22T04:29:11.078Z,5.63
2018-06-22T04:30:11.043Z,5.63
2018-06-22T04:31:10.921Z,5.63
2018-06-22T04:32:10.854Z,5.63
2018-06-22T04:33:10.767Z,5.63
2018-06-22T04:34:10.760Z,5.63
2018-06-22T04:35:10.613Z,5.63
2018-06-22T04:36:10.570Z,5.63
2018-06-22T04:37:10.462Z,5.63
2018-06-22T04:38:10.391Z,11.25
2018-06-22T04:39:10.310Z,5.63
2018-06-22T04:40:10.288Z,5.63
2018-06-22T04:41:10.158Z,11.25
2018-06-22T04:42:10.088Z,11.25
2018-06-22T04:43:09.999Z,11.25
2018-06-22T04:44:10.009Z,5.63
2018-06-22T04:45:09.844Z,5.63
2018-06-22T04:46:09.817Z,11.25
2018-06-22T04:47:09.690Z,11.25
2018-06-22T04:48:09.726Z,11.25
2018-06-22T04:49:09.539Z,11.25
2018-06-22T04:50:09.535Z,11.25
2018-06-22T04:51:09.383Z,11.25
2018-06-22T04:52:09.345Z,11.25
2018-06-22T04:53:09.231Z,11.25
2018-06-22T04:54:20.113Z,16.88
2018-06-22T04:55:09.079Z,16.88
2018-06-22T04:56:19.638Z,16.88
2018-06-22T04:57:08.930Z,16.88
2018-06-22T04:58:19.628Z,16.88
2018-06-22T04:59:08.773Z,16.88
2018-06-22T05:00:08.783Z,16.88
2018-06-22T05:01:08.621Z,22.50
2018-06-22T05:02:08.592Z,22.50
2018-06-22T05:03:08.469Z,28.13
2018-06-22T05:04:08.502Z,28.13
2018-06-22T05:05:08.315Z,28.13
2018-06-22T05:06:08.312Z,28.13
2018-06-22T05:07:08.160Z,22.50
2018-06-22T05:08:08.121Z,22.50
2018-06-22T05:09:08.009Z,22.50
2018-06-22T05:10:08.030Z,22.50
2018-06-22T05:11:07.854Z,16.88
2018-06-22T05:12:07.838Z,16.88
2018-06-22T05:13:07.699Z,16.88
2018-06-22T05:14:07.646Z,11.25
2018-06-22T05:15:07.547Z,11.25
2018-06-22T05:16:07.559Z,16.88
2018-06-22T05:17:07.395Z,16.88
2018-06-22T05:18:07.366Z,16.88
2018-06-22T05:19:07.243Z,16.88
2018-06-22T05:20:07.278Z,16.88
2018-06-22T05:21:07.089Z,16.88
2018-06-22T05:22:07.084Z,16.88
2018-06-22T05:23:06.935Z,16.88
2018-06-22T05:24:06.891Z,16.88
2018-06-22T05:25:06.784Z,22.50
2018-06-22T05:26:06.800Z,22.50
2018-06-22T05:27:06.630Z,22.50
2018-06-22T05:28:06.611Z,22.50
2018-06-22T05:29:06.476Z,28.13
2018-06-22T05:30:06.418Z,28.13
2018-06-22T05:31:06.323Z,28.13
2018-06-22T05:32:06.329Z,28.13
2018-06-22T05:33:06.169Z,33.75
2018-06-22T05:34:06.138Z,33.75
2018-06-22T05:35:06.017Z,33.75
2018-06-22T05:36:06.052Z,33.75
2018-06-22T05:37:05.874Z,39.38
2018-06-22T05:38:05.857Z,28.13
2018-06-22T05:39:05.713Z,39.38
2018-06-22T05:40:05.663Z,28.13
2018-06-22T05:41:05.558Z,28.13
2018-06-22T05:42:05.577Z,39.38
2018-06-22T05:43:05.418Z,39.38
2018-06-22T05:44:05.383Z,39.38
2018-06-22T05:45:05.253Z,39.38
2018-06-22T05:46:05.193Z,39.38
2018-06-22T05:47:05.100Z,39.38
2018-06-22T05:48:05.106Z,39.38
2018-06-22T05:49:04.950Z,33.75
2018-06-22T05:50:04.913Z,39.38
2018-06-22T05:51:04.873Z,39.38
2018-06-22T05:52:04.825Z,39.38
2018-06-22T05:53:04.643Z,39.38
2018-06-22T05:54:04.630Z,39.38
2018-06-22T05:55:04.491Z,28.13
2018-06-22T05:56:04.437Z,39.38
2018-06-22T05:57:04.338Z,16.88
2018-06-22T05:58:04.350Z,39.38
2018-06-22T05:59:04.186Z,45.00
2018-06-22T06:00:04.158Z,50.63
2018-06-22T06:01:04.033Z,56.25
2018-06-22T06:02:04.067Z,56.25
2018-06-22T06:03:03.885Z,61.88
2018-06-22T06:04:03.875Z,50.63
2018-06-22T06:05:03.737Z,33.75
2018-06-22T06:06:03.686Z,56.25
2018-06-22T06:07:03.578Z,61.88
2018-06-22T06:08:03.596Z,50.63
2018-06-22T06:09:03.426Z,61.88
2018-06-22T06:10:03.407Z,50.63
2018-06-22T06:11:03.274Z,61.88
2018-06-22T06:12:03.214Z,61.88
2018-06-22T06:13:03.121Z,61.88
2018-06-22T06:14:03.126Z,67.50
2018-06-22T06:15:02.973Z,39.38
2018-06-22T06:16:02.933Z,73.13
2018-06-22T06:17:02.818Z,73.13
2018-06-22T06:18:02.843Z,39.38
2018-06-22T06:19:02.661Z,33.75
2018-06-22T06:20:02.691Z,22.50
2018-06-22T06:21:02.512Z,33.75
2018-06-22T06:22:02.459Z,61.88
2018-06-22T06:23:02.356Z,45.00
2018-06-22T06:24:02.371Z,22.50
2018-06-22T06:25:02.207Z,22.50
2018-06-22T06:26:02.180Z,67.50
2018-06-22T06:27:02.054Z,73.13
2018-06-22T06:28:02.092Z,67.50
2018-06-22T06:29:01.901Z,45.00
2018-06-22T06:30:01.900Z,28.13
2018-06-22T06:31:01.753Z,61.88
2018-06-22T06:32:01.706Z,45.00
2018-06-22T06:33:01.600Z,84.38
2018-06-22T06:34:01.618Z,78.75
2018-06-22T06:35:01.447Z,78.75
2018-06-22T06:36:01.426Z,78.75
2018-06-22T06:37:01.297Z,78.75
2018-06-22T06:38:01.337Z,78.75
2018-06-22T06:39:01.145Z,78.75
2018-06-22T06:40:01.150Z,78.75
2018-06-22T06:41:00.997Z,78.75
2018-06-22T06:42:00.957Z,78.75
2018-06-22T06:43:00.844Z,78.75
2018-06-22T06:44:00.867Z,78.75
2018-06-22T06:45:00.693Z,78.75
2018-06-22T06:46:00.672Z,78.75
2018-06-22T06:47:00.540Z,84.38
2018-06-22T06:48:00.481Z,90.00
2018-06-22T06:49:00.402Z,90.00
2018-06-22T06:50:00.391Z,101.25
2018-06-22T06:51:00.239Z,95.63
2018-06-22T06:52:00.201Z,95.63
2018-06-22T06:53:00.093Z,61.88
2018-06-22T06:54:00.112Z,33.75
2018-06-22T06:54:59.935Z,56.25
2018-06-22T06:55:59.922Z,101.25
2018-06-22T06:56:59.784Z,101.25
2018-06-22T06:57:59.733Z,101.25
2018-06-22T06:58:59.633Z,33.75
2018-06-22T06:59:59.638Z,101.25
2018-06-22T07:00:59.488Z,106.88
2018-06-22T07:01:59.447Z,33.75
2018-06-22T07:02:59.335Z,106.88
2018-06-22T07:03:59.357Z,106.88
2018-06-22T07:04:59.182Z,56.25
2018-06-22T07:05:59.176Z,118.13
2018-06-22T07:06:59.031Z,123.75
2018-06-22T07:07:58.979Z,123.75
2018-06-22T07:08:58.886Z,123.75
2018-06-22T07:09:58.886Z,73.13
2018-06-22T07:10:58.729Z,135.00
2018-06-22T07:11:58.697Z,129.38
2018-06-22T07:12:58.579Z,33.75
2018-06-22T07:13:58.606Z,33.75
2018-06-22T07:14:58.427Z,33.75
2018-06-22T07:15:58.417Z,90.00
2018-06-22T07:16:58.276Z,28.13
2018-06-22T07:17:58.228Z,28.13
2018-06-22T07:18:58.130Z,33.75
2018-06-22T07:19:58.134Z,39.38
2018-06-22T07:20:57.979Z,61.88
2018-06-22T07:21:57.940Z,39.38
2018-06-22T07:22:57.831Z,33.75
2018-06-22T07:23:57.852Z,73.13
2018-06-22T07:24:57.685Z,33.75
2018-06-22T07:25:57.661Z,33.75
2018-06-22T07:26:57.529Z,185.63
2018-06-22T07:27:57.572Z,45.00
2018-06-22T07:28:57.380Z,191.25
2018-06-22T07:29:57.380Z,191.25
2018-06-22T07:30:57.230Z,191.25
2018-06-22T07:31:57.194Z,191.25
2018-06-22T07:32:57.085Z,112.50
2018-06-22T07:33:57.101Z,174.38
2018-06-22T07:34:56.930Z,225.00
2018-06-22T07:35:56.913Z,196.88
2018-06-22T07:36:56.782Z,157.50
2018-06-22T07:37:56.871Z,50.63
2018-06-22T07:38:56.632Z,50.63
2018-06-22T07:39:56.625Z,202.50
2018-06-22T07:40:56.489Z,106.88
2018-06-22T07:41:56.432Z,196.88
2018-06-22T07:42:56.341Z,56.25
2018-06-22T07:43:56.405Z,50.63
2018-06-22T07:44:56.187Z,45.00
2018-06-22T07:45:56.156Z,236.25
2018-06-22T07:46:56.040Z,241.88
2018-06-22T07:47:56.067Z,241.88
2018-06-22T07:48:55.886Z,247.50
2018-06-22T07:49:55.959Z,253.13
2018-06-22T07:50:55.747Z,163.13
2018-06-22T07:51:55.672Z,264.38
2018-06-22T07:52:55.588Z,270.00
2018-06-22T07:53:55.528Z,275.63
2018-06-22T07:54:55.445Z,270.00
2018-06-22T07:55:55.381Z,67.50
2018-06-22T07:56:55.287Z,45.00
2018-06-22T07:57:55.267Z,241.88
2018-06-22T07:58:55.147Z,241.88
2018-06-22T07:59:55.081Z,247.50
2018-06-22T08:00:54.996Z,247.50
2018-06-22T08:01:54.933Z,157.50
2018-06-22T08:02:54.851Z,247.50
2018-06-22T08:03:54.790Z,247.50
2018-06-22T08:04:54.700Z,253.13
2018-06-22T08:05:54.634Z,258.75
2018-06-22T08:06:54.551Z,264.38
2018-06-22T08:07:54.492Z,270.00
2018-06-22T08:08:54.408Z,281.25
2018-06-22T08:09:54.339Z,281.25
2018-06-22T08:10:54.258Z,286.88
2018-06-22T08:11:54.197Z,135.00
2018-06-22T08:12:54.114Z,67.50
2018-06-22T08:13:54.053Z,286.88
2018-06-22T08:14:53.970Z,56.25
2018-06-22T08:15:53.901Z,264.38
2018-06-22T08:16:53.832Z,270.00
2018-06-22T08:17:53.759Z,281.25
2018-06-22T08:18:53.678Z,84.38
2018-06-22T08:19:53.611Z,112.50
2018-06-22T08:20:53.528Z,275.63
2018-06-22T08:21:53.467Z,275.63
2018-06-22T08:22:53.384Z,264.38
2018-06-22T08:23:53.327Z,270.00
2018-06-22T08:24:53.234Z,264.38
2018-06-22T08:25:53.172Z,270.00
2018-06-22T08:26:53.094Z,275.63
2018-06-22T08:27:53.025Z,275.63
2018-06-22T08:28:52.942Z,270.00
2018-06-22T08:29:52.879Z,270.00
2018-06-22T08:30:52.794Z,275.63
2018-06-22T08:31:52.733Z,281.25
2018-06-22T08:32:52.653Z,275.63
2018-06-22T08:33:52.583Z,270.00
2018-06-22T08:34:52.517Z,258.75
2018-06-22T08:35:52.447Z,258.75
2018-06-22T08:36:52.360Z,264.38
2018-06-22T08:37:52.296Z,264.38
2018-06-22T08:38:52.217Z,253.13
2018-06-22T08:39:52.155Z,264.38
2018-06-22T08:40:52.072Z,258.75
2018-06-22T08:41:52.135Z,264.38
2018-06-22T08:42:51.925Z,270.00
2018-06-22T08:43:51.861Z,281.25
2018-06-22T08:44:51.782Z,303.75
2018-06-22T08:45:51.713Z,101.25
2018-06-22T08:46:51.642Z,163.13
2018-06-22T08:47:51.577Z,146.25
2018-06-22T08:48:51.513Z,146.25
2018-06-22T08:49:51.428Z,168.75
2018-06-22T08:50:51.348Z,90.00
2018-06-22T08:51:51.288Z,95.63
2018-06-22T08:52:51.218Z,140.63
2018-06-22T08:53:51.140Z,95.63
2018-06-22T08:54:51.057Z,112.50
2018-06-22T08:55:50.996Z,123.75
2018-06-22T08:56:50.918Z,241.88
2018-06-22T08:57:50.851Z,146.25
2018-06-22T08:58:50.772Z,129.38
2018-06-22T08:59:50.704Z,101.25
2018-06-22T09:00:50.627Z,90.00
2018-06-22T09:01:50.564Z,84.38
2018-06-22T09:02:50.477Z,84.38
2018-06-22T09:03:50.419Z,84.38
2018-06-22T09:04:50.342Z,84.38
2018-06-22T09:05:50.274Z,84.38
2018-06-22T09:06:50.195Z,95.63
2018-06-22T09:07:50.126Z,106.88
2018-06-22T09:08:50.050Z,118.13
2018-06-22T09:09:49.982Z,118.13
2018-06-22T09:10:49.898Z,118.13
2018-06-22T09:11:49.838Z,123.75
2018-06-22T09:12:49.761Z,118.13
2018-06-22T09:13:49.693Z,112.50
2018-06-22T09:14:49.616Z,106.88
2018-06-22T09:15:49.549Z,95.63
2018-06-22T09:16:49.465Z,95.63
2018-06-22T09:17:49.410Z,101.25
2018-06-22T09:18:49.334Z,106.88
2018-06-22T09:19:49.258Z,112.50
2018-06-22T09:20:49.184Z,106.88
2018-06-22T09:21:49.113Z,101.25
2018-06-22T09:22:49.032Z,95.63
2018-06-22T09:23:48.964Z,90.00
2018-06-22T09:24:48.888Z,84.38
2018-06-22T09:25:48.824Z,73.13
2018-06-22T09:26:48.743Z,73.13
2018-06-22T09:27:48.680Z,67.50
2018-06-22T09:28:48.600Z,67.50
2018-06-22T09:29:48.533Z,67.50
2018-06-22T09:30:48.454Z,67.50
2018-06-22T09:31:48.390Z,67.50
2018-06-22T09:32:48.307Z,67.50
2018-06-22T09:33:48.241Z,61.88
2018-06-22T09:34:48.162Z,61.88
2018-06-22T09:35:48.098Z,56.25
2018-06-22T09:36:48.033Z,56.25
2018-06-22T09:37:47.950Z,56.25
2018-06-22T09:38:47.872Z,61.88
2018-06-22T09:39:47.818Z,61.88
2018-06-22T09:40:47.727Z,67.50
2018-06-22T09:41:47.661Z,73.13
2018-06-22T09:42:47.614Z,73.13
2018-06-22T09:43:47.515Z,78.75
2018-06-22T09:44:47.432Z,78.75
2018-06-22T09:45:47.373Z,78.75
2018-06-22T09:46:47.286Z,84.38
2018-06-22T09:47:47.220Z,84.38
2018-06-22T09:48:47.146Z,90.00
2018-06-22T09:49:47.076Z,95.63
2018-06-22T09:50:46.998Z,95.63
2018-06-22T09:51:46.928Z,146.25
2018-06-22T09:52:46.852Z,163.13
2018-06-22T09:53:46.780Z,118.13
2018-06-22T09:54:46.703Z,123.75
2018-06-22T09:55:46.638Z,112.50
2018-06-22T09:56:46.558Z,84.38
2018-06-22T09:57:46.493Z,73.13
2018-06-22T09:58:46.412Z,61.88
2018-06-22T09:59:46.346Z,56.25
2018-06-22T10:00:46.268Z,50.63
2018-06-22T10:01:46.200Z,50.63
2018-06-22T10:02:46.120Z,50.63
2018-06-22T10:03:46.053Z,50.63
2018-06-22T10:04:45.994Z,50.63
2018-06-22T10:05:45.939Z,50.63
2018-06-22T10:06:45.828Z,50.63
2018-06-22T10:07:45.761Z,56.25
2018-06-22T10:08:45.679Z,56.25
2018-06-22T10:09:45.614Z,56.25
2018-06-22T10:10:45.538Z,73.13
2018-06-22T10:11:45.474Z,90.00
2018-06-22T10:12:45.387Z,101.25
2018-06-22T10:13:45.325Z,101.25
2018-06-22T10:14:45.239Z,95.63
2018-06-22T10:15:45.178Z,90.00
2018-06-22T10:16:45.093Z,84.38
2018-06-22T10:17:45.028Z,78.75
2018-06-22T10:18:44.949Z,73.13
2018-06-22T10:19:44.893Z,78.75
2018-06-22T10:20:44.808Z,78.75
2018-06-22T10:21:44.739Z,73.13
2018-06-22T10:22:44.656Z,67.50
2018-06-22T10:23:44.583Z,61.88
2018-06-22T10:24:44.507Z,50.63
2018-06-22T10:25:44.435Z,50.63
2018-06-22T10:26:44.357Z,50.63
2018-06-22T10:27:44.291Z,50.63
2018-06-22T10:28:44.209Z,50.63
2018-06-22T10:29:44.147Z,61.88
2018-06-22T10:30:44.060Z,73.13
2018-06-22T10:31:43.997Z,78.75
2018-06-22T10:32:43.914Z,84.38
2018-06-22T10:33:43.859Z,84.38
2018-06-22T10:34:43.772Z,73.13
2018-06-22T10:35:43.701Z,67.50
2018-06-22T10:36:43.628Z,61.88
2018-06-22T10:37:43.547Z,56.25
2018-06-22T10:38:43.474Z,50.63
2018-06-22T10:39:43.405Z,45.00
2018-06-22T10:40:43.324Z,39.38
2018-06-22T10:41:43.263Z,39.38
2018-06-22T10:42:43.172Z,39.38
2018-06-22T10:43:43.115Z,39.38
2018-06-22T10:44:43.027Z,39.38
2018-06-22T10:45:43.038Z,39.38
2018-06-22T10:46:42.884Z,39.38
2018-06-22T10:47:42.806Z,39.38
2018-06-22T10:48:42.737Z,45.00
2018-06-22T10:49:42.741Z,50.63
2018-06-22T10:50:42.602Z,50.63
2018-06-22T10:51:42.548Z,45.00
2018-06-22T10:52:42.512Z,39.38
2018-06-22T10:53:42.460Z,39.38
2018-06-22T10:54:42.286Z,39.38
2018-06-22T10:55:42.266Z,45.00
2018-06-22T10:56:42.149Z,45.00
2018-06-22T10:57:42.179Z,45.00
2018-06-22T10:58:41.994Z,50.63
2018-06-22T10:59:42.044Z,56.25
2018-06-22T11:00:41.848Z,67.50
2018-06-22T11:01:41.795Z,73.13
2018-06-22T11:02:41.701Z,84.38
2018-06-22T11:03:41.709Z,95.63
2018-06-22T11:04:41.550Z,106.88
2018-06-22T11:05:41.539Z,112.50
2018-06-22T11:06:41.399Z,140.63
2018-06-22T11:07:41.431Z,101.25
2018-06-22T11:08:41.254Z,95.63
2018-06-22T11:09:41.241Z,95.63
2018-06-22T11:10:41.104Z,95.63
2018-06-22T11:11:41.155Z,106.88
2018-06-22T11:12:40.957Z,123.75
2018-06-22T11:13:40.996Z,140.63
2018-06-22T11:14:40.811Z,140.63
2018-06-22T11:15:40.770Z,196.88
2018-06-22T11:16:40.674Z,112.50
2018-06-22T11:17:40.685Z,101.25
2018-06-22T11:18:40.514Z,95.63
2018-06-22T11:19:40.488Z,101.25
2018-06-22T11:20:40.365Z,106.88
2018-06-22T11:21:40.402Z,118.13
2018-06-22T11:22:40.217Z,196.88
2018-06-22T11:23:40.210Z,118.13
2018-06-22T11:24:40.072Z,123.75
2018-06-22T11:25:39.996Z,180.00
2018-06-22T11:26:40.026Z,202.50
2018-06-22T11:27:39.851Z,146.25
2018-06-22T11:28:39.832Z,146.25
2018-06-22T11:29:39.703Z,123.75
2018-06-22T11:30:39.805Z,118.13
2018-06-22T11:31:39.556Z,118.13
2018-06-22T11:32:39.557Z,106.88
2018-06-22T11:33:39.407Z,101.25
2018-06-22T11:34:39.365Z,101.25
2018-06-22T11:35:39.289Z,101.25
2018-06-22T11:36:39.277Z,95.63
2018-06-22T11:37:39.119Z,95.63
2018-06-22T11:38:39.084Z,101.25
2018-06-22T11:39:38.971Z,123.75
2018-06-22T11:40:38.998Z,146.25
2018-06-22T11:41:38.823Z,135.00
2018-06-22T11:42:38.804Z,112.50
2018-06-22T11:43:38.674Z,112.50
2018-06-22T11:44:38.603Z,118.13
2018-06-22T11:45:38.622Z,95.63
2018-06-22T11:46:38.467Z,84.38
2018-06-22T11:47:38.433Z,78.75
2018-06-22T11:48:38.308Z,84.38
2018-06-22T11:49:38.342Z,84.38
2018-06-22T11:50:38.161Z,73.13
2018-06-22T11:51:38.151Z,67.50
2018-06-22T11:52:38.016Z,67.50
2018-06-22T11:53:37.943Z,67.50
2018-06-22T11:54:37.871Z,73.13
2018-06-22T11:55:37.873Z,67.50
2018-06-22T11:56:37.725Z,67.50
2018-06-22T11:57:37.783Z,61.88
2018-06-22T11:58:37.587Z,61.88
2018-06-22T11:59:37.591Z,56.25
2018-06-22T12:00:37.430Z,61.88
2018-06-22T12:01:37.521Z,67.50
2018-06-22T12:02:37.286Z,67.50
2018-06-22T12:03:37.309Z,78.75
2018-06-22T12:04:37.191Z,84.38
2018-06-22T12:05:37.121Z,78.75
2018-06-22T12:06:36.995Z,73.13
2018-06-22T12:07:37.037Z,67.50
2018-06-22T12:08:36.848Z,61.88
2018-06-22T12:09:36.843Z,61.88
2018-06-22T12:10:36.701Z,56.25
2018-06-22T12:11:36.628Z,45.00
2018-06-22T12:12:36.660Z,33.75
2018-06-22T12:13:36.484Z,28.13
2018-06-22T12:14:36.436Z,22.50
2018-06-22T12:15:36.367Z,16.88
2018-06-22T12:16:36.381Z,16.88
2018-06-22T12:17:36.187Z,22.50
2018-06-22T12:18:36.190Z,22.50
2018-06-22T12:19:36.042Z,33.75
2018-06-22T12:20:36.098Z,39.38
2018-06-22T12:21:35.898Z,56.25
2018-06-22T12:22:35.907Z,67.50
2018-06-22T12:23:35.749Z,90.00
2018-06-22T12:24:35.818Z,163.13
2018-06-22T12:25:35.603Z,78.75
2018-06-22T12:26:35.628Z,219.38
2018-06-22T12:27:35.508Z,208.13
2018-06-22T12:28:35.437Z,73.13
2018-06-22T12:29:35.313Z,208.13
2018-06-22T12:30:35.349Z,202.50
2018-06-22T12:31:35.168Z,202.50
2018-06-22T12:32:35.159Z,202.50
2018-06-22T12:33:35.016Z,180.00
2018-06-22T12:34:35.070Z,213.75
2018-06-22T12:35:34.868Z,225.00
2018-06-22T12:36:34.879Z,230.63
2018-06-22T12:37:34.730Z,73.13
2018-06-22T12:38:34.839Z,78.75
2018-06-22T12:39:34.582Z,101.25
2018-06-22T12:40:34.603Z,191.25
2018-06-22T12:41:34.433Z,146.25
2018-06-22T12:42:34.510Z,140.63
2018-06-22T12:43:34.284Z,258.75
2018-06-22T12:44:34.213Z,84.38
2018-06-22T12:45:34.224Z,95.63
2018-06-22T12:46:34.073Z,78.75
2018-06-22T12:47:34.138Z,236.25
2018-06-22T12:48:33.931Z,163.13
2018-06-22T12:49:33.945Z,129.38
2018-06-22T12:50:33.830Z,112.50
2018-06-22T12:51:33.858Z,106.88
2018-06-22T12:52:33.635Z,84.38
2018-06-22T12:53:33.671Z,84.38
2018-06-22T12:54:33.487Z,253.13
2018-06-22T12:55:33.473Z,95.63
2018-06-22T12:56:33.343Z,219.38
2018-06-22T12:57:33.394Z,95.63
2018-06-22T12:58:33.201Z,84.38
2018-06-22T12:59:33.196Z,67.50
2018-06-22T13:00:33.053Z,56.25
2018-06-22T13:01:33.106Z,56.25
2018-06-22T13:02:32.910Z,56.25
2018-06-22T13:03:32.924Z,56.25
2018-06-22T13:04:32.771Z,56.25
2018-06-22T13:05:32.829Z,56.25